Página principal
METAR-TAF:

METAR-TAF

Aeroportos :

Iqaluit, Nunavut, Canadá

latitude: 63-45N, longitude: 068-33W, altura: 34 m

Observação actual do tempo

O boletim foi feito há 1 hora e 12 minutos, às 12:00 UTC
Vento calmo
Temperatura -28°C
Humidade 75%
Pressão 1009 hPa
Visibilidade: 24.1 km
Nuvens dispersasa uma altura de 12000 ft

METAR: CYFB 191200Z 00000KT 15SM SCT120 M28/M31 A2980 RMK AC3 SLP098

Hora: 08:12 (13:12 UTC)

Previsão

O boletim foi feito há 1 hora e 34 minutos, às 11:38 UTC
Previsão válida de 19 às 12 UTC a 20 às 12 UTC
Vento 5 kt de nor-noroeste
Visibilidade: 10 km
Nuvens dispersasa uma altura de 6000 ft
Nuvens dispersasa uma altura de 12000 ft
cristais de gelo

TAF: CYFB 191138Z 1912/2012 34005KT P6SM IC SCT060 SCT120 RMK NXT FCST BY 191800Z

Observações e previsões do tempo de mais de 4000 aeroportos (mensagens METAR e TAF).

As estações disponíveis são os pontos amarelos e vermelhos sobre o mapa.

Mova o rato sobre o mapa para ver o nome da estação.

Depois clique no ponto para visualizar as observações e previsões meteorológicas.

Para alterar o mapa : clique nos botões verdes com uma cruz preta para aumentar o zoom; no botão verde com uma pitada de zoom; ou nas setas verdes para mapas adjacentes.


METAR-TAF: